sensor_id;sensor_type;location;lat;lon;timestamp;P1;durP1;ratioP1;P2;durP2;ratioP2
75667;SDS011;64266;48.798;44.756;2023-07-09T00:04:33;13.35;;;4.60;;
75667;SDS011;64266;48.798;44.756;2023-07-09T00:09:36;16.65;;;4.05;;
75667;SDS011;64266;48.798;44.756;2023-07-09T00:14:39;16.67;;;4.85;;
75667;SDS011;64266;48.798;44.756;2023-07-09T00:19:42;14.50;;;4.53;;
75667;SDS011;64266;48.798;44.756;2023-07-09T00:24:47;18.55;;;4.18;;
75667;SDS011;64266;48.798;44.756;2023-07-09T00:29:53;17.15;;;4.78;;
75667;SDS011;64266;48.798;44.756;2023-07-09T00:34:55;19.08;;;4.30;;
75667;SDS011;64266;48.798;44.756;2023-07-09T00:39:59;11.98;;;4.65;;
75667;SDS011;64266;48.798;44.756;2023-07-09T00:45:07;17.33;;;4.15;;
75667;SDS011;64266;48.798;44.756;2023-07-09T00:50:27;15.05;;;4.15;;
75667;SDS011;64266;48.798;44.756;2023-07-09T00:55:32;10.20;;;3.75;;
75667;SDS011;64266;48.798;44.756;2023-07-09T01:00:50;13.38;;;4.47;;
75667;SDS011;64266;48.798;44.756;2023-07-09T01:06:02;15.40;;;4.25;;
75667;SDS011;64266;48.798;44.756;2023-07-09T01:11:17;13.85;;;4.55;;
75667;SDS011;64266;48.798;44.756;2023-07-09T01:16:25;11.57;;;4.47;;
75667;SDS011;64266;48.798;44.756;2023-07-09T01:21:31;13.75;;;5.15;;
75667;SDS011;64266;48.798;44.756;2023-07-09T01:26:34;20.10;;;5.28;;
75667;SDS011;64266;48.798;44.756;2023-07-09T01:31:37;14.30;;;4.72;;
75667;SDS011;64266;48.798;44.756;2023-07-09T01:36:40;16.17;;;4.80;;
75667;SDS011;64266;48.798;44.756;2023-07-09T01:41:42;14.63;;;5.55;;
75667;SDS011;64266;48.798;44.756;2023-07-09T01:46:46;18.52;;;5.22;;
75667;SDS011;64266;48.798;44.756;2023-07-09T01:51:51;18.05;;;5.68;;
75667;SDS011;64266;48.798;44.756;2023-07-09T01:56:54;16.67;;;5.80;;
75667;SDS011;64266;48.798;44.756;2023-07-09T02:02:03;23.02;;;6.50;;
75667;SDS011;64266;48.798;44.756;2023-07-09T02:07:06;19.70;;;6.95;;
75667;SDS011;64266;48.798;44.756;2023-07-09T02:12:10;17.52;;;7.45;;
75667;SDS011;64266;48.798;44.756;2023-07-09T02:22:20;25.50;;;10.32;;
75667;SDS011;64266;48.798;44.756;2023-07-09T02:27:22;27.67;;;10.27;;
75667;SDS011;64266;48.798;44.756;2023-07-09T02:32:26;24.08;;;9.80;;
75667;SDS011;64266;48.798;44.756;2023-07-09T02:37:31;20.35;;;10.15;;
75667;SDS011;64266;48.798;44.756;2023-07-09T02:42:34;20.15;;;9.40;;
75667;SDS011;64266;48.798;44.756;2023-07-09T02:47:37;25.20;;;10.55;;
75667;SDS011;64266;48.798;44.756;2023-07-09T02:52:41;25.38;;;9.93;;
75667;SDS011;64266;48.798;44.756;2023-07-09T02:57:44;20.15;;;9.80;;
75667;SDS011;64266;48.798;44.756;2023-07-09T03:02:47;26.23;;;9.73;;
75667;SDS011;64266;48.798;44.756;2023-07-09T03:07:50;22.67;;;9.35;;
75667;SDS011;64266;48.798;44.756;2023-07-09T03:12:53;22.83;;;11.43;;
75667;SDS011;64266;48.798;44.756;2023-07-09T03:17:56;19.83;;;9.70;;
75667;SDS011;64266;48.798;44.756;2023-07-09T03:22:59;22.55;;;9.52;;
75667;SDS011;64266;48.798;44.756;2023-07-09T03:28:02;24.58;;;10.73;;
75667;SDS011;64266;48.798;44.756;2023-07-09T03:33:06;13.65;;;8.40;;
75667;SDS011;64266;48.798;44.756;2023-07-09T03:38:10;16.30;;;8.18;;
75667;SDS011;64266;48.798;44.756;2023-07-09T03:43:13;16.33;;;8.27;;
75667;SDS011;64266;48.798;44.756;2023-07-09T03:48:17;19.50;;;8.35;;
75667;SDS011;64266;48.798;44.756;2023-07-09T03:53:21;21.75;;;8.18;;
75667;SDS011;64266;48.798;44.756;2023-07-09T03:58:24;17.48;;;8.15;;
75667;SDS011;64266;48.798;44.756;2023-07-09T04:03:27;20.67;;;7.22;;
75667;SDS011;64266;48.798;44.756;2023-07-09T04:08:31;16.63;;;7.78;;
75667;SDS011;64266;48.798;44.756;2023-07-09T04:13:34;19.10;;;7.70;;
75667;SDS011;64266;48.798;44.756;2023-07-09T04:18:37;18.38;;;7.47;;
75667;SDS011;64266;48.798;44.756;2023-07-09T04:23:40;14.90;;;6.93;;
75667;SDS011;64266;48.798;44.756;2023-07-09T04:28:42;18.08;;;6.93;;
75667;SDS011;64266;48.798;44.756;2023-07-09T04:33:45;17.67;;;6.72;;
75667;SDS011;64266;48.798;44.756;2023-07-09T04:38:48;30.52;;;22.60;;
75667;SDS011;64266;48.798;44.756;2023-07-09T04:43:52;12.43;;;5.82;;
75667;SDS011;64266;48.798;44.756;2023-07-09T04:48:56;13.43;;;5.38;;
75667;SDS011;64266;48.798;44.756;2023-07-09T04:53:58;14.23;;;5.55;;
75667;SDS011;64266;48.798;44.756;2023-07-09T04:59:05;14.25;;;5.32;;
75667;SDS011;64266;48.798;44.756;2023-07-09T05:04:08;16.48;;;6.05;;
75667;SDS011;64266;48.798;44.756;2023-07-09T05:09:11;14.40;;;5.40;;
75667;SDS011;64266;48.798;44.756;2023-07-09T05:14:14;16.58;;;4.72;;
75667;SDS011;64266;48.798;44.756;2023-07-09T05:19:19;9.93;;;4.63;;
75667;SDS011;64266;48.798;44.756;2023-07-09T05:24:24;9.77;;;4.53;;
75667;SDS011;64266;48.798;44.756;2023-07-09T05:29:29;15.07;;;5.32;;
75667;SDS011;64266;48.798;44.756;2023-07-09T05:34:32;10.52;;;4.35;;
75667;SDS011;64266;48.798;44.756;2023-07-09T05:39:35;8.25;;;4.30;;
75667;SDS011;64266;48.798;44.756;2023-07-09T05:44:38;11.48;;;5.05;;
75667;SDS011;64266;48.798;44.756;2023-07-09T05:49:42;9.88;;;4.43;;
75667;SDS011;64266;48.798;44.756;2023-07-09T05:54:44;9.55;;;4.20;;
75667;SDS011;64266;48.798;44.756;2023-07-09T05:59:48;13.20;;;4.13;;
75667;SDS011;64266;48.798;44.756;2023-07-09T06:04:51;9.68;;;4.20;;
75667;SDS011;64266;48.798;44.756;2023-07-09T06:09:54;11.13;;;4.35;;
75667;SDS011;64266;48.798;44.756;2023-07-09T06:14:57;9.80;;;3.88;;
75667;SDS011;64266;48.798;44.756;2023-07-09T06:20:00;11.95;;;4.50;;
75667;SDS011;64266;48.798;44.756;2023-07-09T06:25:04;12.98;;;4.13;;
75667;SDS011;64266;48.798;44.756;2023-07-09T06:30:07;13.77;;;4.15;;
75667;SDS011;64266;48.798;44.756;2023-07-09T06:35:11;11.52;;;3.67;;
75667;SDS011;64266;48.798;44.756;2023-07-09T06:40:14;11.30;;;3.90;;
75667;SDS011;64266;48.798;44.756;2023-07-09T06:45:18;13.23;;;3.88;;
75667;SDS011;64266;48.798;44.756;2023-07-09T06:50:22;12.77;;;4.07;;
75667;SDS011;64266;48.798;44.756;2023-07-09T06:55:24;14.35;;;5.55;;
75667;SDS011;64266;48.798;44.756;2023-07-09T07:00:27;10.80;;;5.25;;
75667;SDS011;64266;48.798;44.756;2023-07-09T07:05:31;10.90;;;3.75;;
75667;SDS011;64266;48.798;44.756;2023-07-09T07:10:34;10.65;;;3.25;;
75667;SDS011;64266;48.798;44.756;2023-07-09T07:15:37;16.13;;;4.05;;
75667;SDS011;64266;48.798;44.756;2023-07-09T07:20:43;11.18;;;3.63;;
75667;SDS011;64266;48.798;44.756;2023-07-09T07:25:46;10.60;;;3.60;;
75667;SDS011;64266;48.798;44.756;2023-07-09T07:30:59;8.93;;;3.85;;
75667;SDS011;64266;48.798;44.756;2023-07-09T07:36:04;11.07;;;3.95;;
75667;SDS011;64266;48.798;44.756;2023-07-09T07:41:28;12.30;;;3.53;;
75667;SDS011;64266;48.798;44.756;2023-07-09T07:46:32;14.63;;;4.10;;
75667;SDS011;64266;48.798;44.756;2023-07-09T07:51:36;13.02;;;4.03;;
75667;SDS011;64266;48.798;44.756;2023-07-09T07:56:39;10.73;;;4.10;;
75667;SDS011;64266;48.798;44.756;2023-07-09T08:01:42;11.32;;;4.60;;
75667;SDS011;64266;48.798;44.756;2023-07-09T08:06:46;10.40;;;4.68;;
75667;SDS011;64266;48.798;44.756;2023-07-09T08:11:49;11.68;;;3.83;;
75667;SDS011;64266;48.798;44.756;2023-07-09T08:16:59;8.18;;;3.80;;
75667;SDS011;64266;48.798;44.756;2023-07-09T08:22:07;10.18;;;3.63;;
75667;SDS011;64266;48.798;44.756;2023-07-09T08:27:12;14.35;;;3.53;;
75667;SDS011;64266;48.798;44.756;2023-07-09T08:32:16;10.38;;;3.80;;
75667;SDS011;64266;48.798;44.756;2023-07-09T08:37:19;11.85;;;3.92;;
75667;SDS011;64266;48.798;44.756;2023-07-09T08:42:31;11.82;;;4.05;;
75667;SDS011;64266;48.798;44.756;2023-07-09T08:53:18;12.38;;;4.30;;
75667;SDS011;64266;48.798;44.756;2023-07-09T08:58:25;12.20;;;4.88;;
75667;SDS011;64266;48.798;44.756;2023-07-09T09:03:39;13.82;;;4.65;;
75667;SDS011;64266;48.798;44.756;2023-07-09T09:09:02;14.25;;;5.00;;
75667;SDS011;64266;48.798;44.756;2023-07-09T09:15:13;13.73;;;4.80;;
75667;SDS011;64266;48.798;44.756;2023-07-09T09:20:16;15.07;;;5.10;;
75667;SDS011;64266;48.798;44.756;2023-07-09T09:25:30;15.52;;;4.63;;
75667;SDS011;64266;48.798;44.756;2023-07-09T09:30:35;12.40;;;5.47;;
75667;SDS011;64266;48.798;44.756;2023-07-09T09:35:40;10.90;;;5.13;;
75667;SDS011;64266;48.798;44.756;2023-07-09T09:40:44;14.52;;;5.47;;
75667;SDS011;64266;48.798;44.756;2023-07-09T09:45:48;17.00;;;5.15;;
75667;SDS011;64266;48.798;44.756;2023-07-09T09:50:52;11.95;;;4.65;;
75667;SDS011;64266;48.798;44.756;2023-07-09T09:55:56;14.50;;;5.18;;
75667;SDS011;64266;48.798;44.756;2023-07-09T10:01:01;12.55;;;5.38;;
75667;SDS011;64266;48.798;44.756;2023-07-09T10:06:18;12.20;;;5.10;;
75667;SDS011;64266;48.798;44.756;2023-07-09T10:11:28;10.77;;;4.55;;
75667;SDS011;64266;48.798;44.756;2023-07-09T10:16:38;12.18;;;4.65;;
75667;SDS011;64266;48.798;44.756;2023-07-09T10:21:56;11.02;;;4.70;;
75667;SDS011;64266;48.798;44.756;2023-07-09T10:42:41;8.40;;;4.43;;
75667;SDS011;64266;48.798;44.756;2023-07-09T11:04:01;12.80;;;4.47;;
75667;SDS011;64266;48.798;44.756;2023-07-09T11:09:19;11.00;;;4.30;;
75667;SDS011;64266;48.798;44.756;2023-07-09T11:14:46;12.35;;;4.47;;
75667;SDS011;64266;48.798;44.756;2023-07-09T11:19:58;10.20;;;3.92;;
75667;SDS011;64266;48.798;44.756;2023-07-09T11:30:22;8.30;;;3.95;;
75667;SDS011;64266;48.798;44.756;2023-07-09T11:35:28;9.73;;;3.67;;
75667;SDS011;64266;48.798;44.756;2023-07-09T11:40:32;6.88;;;3.72;;
75667;SDS011;64266;48.798;44.756;2023-07-09T11:45:35;13.65;;;4.78;;
75667;SDS011;64266;48.798;44.756;2023-07-09T11:50:41;14.20;;;3.92;;
75667;SDS011;64266;48.798;44.756;2023-07-09T11:55:51;10.82;;;4.07;;
75667;SDS011;64266;48.798;44.756;2023-07-09T12:00:55;10.23;;;4.20;;
75667;SDS011;64266;48.798;44.756;2023-07-09T12:06:01;9.40;;;4.20;;
75667;SDS011;64266;48.798;44.756;2023-07-09T12:11:17;16.02;;;4.05;;
75667;SDS011;64266;48.798;44.756;2023-07-09T12:16:30;13.13;;;6.45;;
75667;SDS011;64266;48.798;44.756;2023-07-09T12:21:38;9.35;;;3.60;;
75667;SDS011;64266;48.798;44.756;2023-07-09T12:26:47;6.53;;;3.50;;
75667;SDS011;64266;48.798;44.756;2023-07-09T12:32:11;8.68;;;3.15;;
75667;SDS011;64266;48.798;44.756;2023-07-09T12:37:16;8.63;;;3.38;;
75667;SDS011;64266;48.798;44.756;2023-07-09T12:42:24;11.20;;;3.60;;
75667;SDS011;64266;48.798;44.756;2023-07-09T12:47:33;8.43;;;3.25;;
75667;SDS011;64266;48.798;44.756;2023-07-09T12:52:37;7.57;;;2.72;;
75667;SDS011;64266;48.798;44.756;2023-07-09T12:57:48;5.22;;;2.78;;
75667;SDS011;64266;48.798;44.756;2023-07-09T13:02:54;6.35;;;2.97;;
75667;SDS011;64266;48.798;44.756;2023-07-09T13:07:59;7.55;;;3.05;;
75667;SDS011;64266;48.798;44.756;2023-07-09T13:13:04;7.30;;;3.10;;
75667;SDS011;64266;48.798;44.756;2023-07-09T13:18:10;7.70;;;3.22;;
75667;SDS011;64266;48.798;44.756;2023-07-09T13:23:23;7.50;;;2.70;;
75667;SDS011;64266;48.798;44.756;2023-07-09T13:28:31;7.38;;;2.90;;
75667;SDS011;64266;48.798;44.756;2023-07-09T13:33:34;5.80;;;3.17;;
75667;SDS011;64266;48.798;44.756;2023-07-09T13:38:37;5.95;;;2.90;;
75667;SDS011;64266;48.798;44.756;2023-07-09T13:43:42;8.82;;;2.90;;
75667;SDS011;64266;48.798;44.756;2023-07-09T13:48:46;5.25;;;2.63;;
75667;SDS011;64266;48.798;44.756;2023-07-09T13:53:50;6.07;;;2.55;;
75667;SDS011;64266;48.798;44.756;2023-07-09T13:58:56;8.65;;;4.93;;
75667;SDS011;64266;48.798;44.756;2023-07-09T14:04:00;9.25;;;3.28;;
75667;SDS011;64266;48.798;44.756;2023-07-09T14:09:03;7.82;;;3.10;;
75667;SDS011;64266;48.798;44.756;2023-07-09T14:14:16;7.55;;;2.90;;
75667;SDS011;64266;48.798;44.756;2023-07-09T14:19:33;8.60;;;3.22;;
75667;SDS011;64266;48.798;44.756;2023-07-09T14:24:38;12.73;;;4.22;;
75667;SDS011;64266;48.798;44.756;2023-07-09T14:29:40;14.45;;;8.80;;
75667;SDS011;64266;48.798;44.756;2023-07-09T14:34:43;21.05;;;13.30;;
75667;SDS011;64266;48.798;44.756;2023-07-09T14:39:46;9.07;;;3.20;;
75667;SDS011;64266;48.798;44.756;2023-07-09T14:44:49;5.97;;;2.70;;
75667;SDS011;64266;48.798;44.756;2023-07-09T14:49:52;4.97;;;2.55;;
75667;SDS011;64266;48.798;44.756;2023-07-09T14:55:00;8.20;;;4.55;;
75667;SDS011;64266;48.798;44.756;2023-07-09T15:00:04;8.90;;;3.33;;
75667;SDS011;64266;48.798;44.756;2023-07-09T15:05:13;5.28;;;3.03;;
75667;SDS011;64266;48.798;44.756;2023-07-09T15:10:20;6.35;;;2.58;;
75667;SDS011;64266;48.798;44.756;2023-07-09T15:15:27;6.43;;;2.45;;
75667;SDS011;64266;48.798;44.756;2023-07-09T15:20:33;5.45;;;2.38;;
75667;SDS011;64266;48.798;44.756;2023-07-09T15:25:39;6.25;;;2.70;;
75667;SDS011;64266;48.798;44.756;2023-07-09T15:30:42;14.15;;;4.72;;
75667;SDS011;64266;48.798;44.756;2023-07-09T15:35:46;5.95;;;2.83;;
75667;SDS011;64266;48.798;44.756;2023-07-09T15:40:52;8.18;;;4.60;;
75667;SDS011;64266;48.798;44.756;2023-07-09T15:45:55;5.72;;;2.60;;
75667;SDS011;64266;48.798;44.756;2023-07-09T15:51:01;9.18;;;4.00;;
75667;SDS011;64266;48.798;44.756;2023-07-09T15:56:18;11.65;;;5.05;;
75667;SDS011;64266;48.798;44.756;2023-07-09T16:01:32;8.77;;;2.88;;
75667;SDS011;64266;48.798;44.756;2023-07-09T16:11:42;8.60;;;2.45;;
75667;SDS011;64266;48.798;44.756;2023-07-09T16:16:47;9.75;;;3.00;;
75667;SDS011;64266;48.798;44.756;2023-07-09T16:21:55;6.45;;;2.70;;
75667;SDS011;64266;48.798;44.756;2023-07-09T16:27:01;8.35;;;2.58;;
75667;SDS011;64266;48.798;44.756;2023-07-09T16:32:05;9.07;;;2.80;;
75667;SDS011;64266;48.798;44.756;2023-07-09T16:37:14;11.73;;;3.75;;
75667;SDS011;64266;48.798;44.756;2023-07-09T16:42:20;9.93;;;3.00;;
75667;SDS011;64266;48.798;44.756;2023-07-09T16:47:22;9.35;;;3.15;;
75667;SDS011;64266;48.798;44.756;2023-07-09T16:52:27;11.52;;;4.13;;
75667;SDS011;64266;48.798;44.756;2023-07-09T16:57:31;12.80;;;4.78;;
75667;SDS011;64266;48.798;44.756;2023-07-09T17:02:36;13.70;;;6.05;;
75667;SDS011;64266;48.798;44.756;2023-07-09T17:07:39;10.63;;;3.95;;
75667;SDS011;64266;48.798;44.756;2023-07-09T17:12:42;21.30;;;3.65;;
75667;SDS011;64266;48.798;44.756;2023-07-09T17:17:45;8.25;;;3.67;;
75667;SDS011;64266;48.798;44.756;2023-07-09T17:22:49;12.10;;;3.30;;
75667;SDS011;64266;48.798;44.756;2023-07-09T17:27:54;11.40;;;3.72;;
75667;SDS011;64266;48.798;44.756;2023-07-09T17:32:59;10.45;;;3.83;;
75667;SDS011;64266;48.798;44.756;2023-07-09T17:38:02;21.85;;;3.80;;
75667;SDS011;64266;48.798;44.756;2023-07-09T17:43:25;12.05;;;4.00;;
75667;SDS011;64266;48.798;44.756;2023-07-09T17:48:29;11.43;;;3.88;;
75667;SDS011;64266;48.798;44.756;2023-07-09T17:53:35;15.98;;;3.75;;
75667;SDS011;64266;48.798;44.756;2023-07-09T17:58:41;14.70;;;4.18;;
75667;SDS011;64266;48.798;44.756;2023-07-09T18:03:46;16.58;;;5.20;;
75667;SDS011;64266;48.798;44.756;2023-07-09T18:08:49;15.68;;;5.28;;
75667;SDS011;64266;48.798;44.756;2023-07-09T18:13:52;18.02;;;6.30;;
75667;SDS011;64266;48.798;44.756;2023-07-09T18:18:56;30.67;;;5.20;;
75667;SDS011;64266;48.798;44.756;2023-07-09T18:24:04;14.43;;;4.82;;
75667;SDS011;64266;48.798;44.756;2023-07-09T18:29:09;11.32;;;4.45;;
75667;SDS011;64266;48.798;44.756;2023-07-09T18:34:24;11.73;;;4.40;;
75667;SDS011;64266;48.798;44.756;2023-07-09T18:39:27;12.68;;;4.18;;
75667;SDS011;64266;48.798;44.756;2023-07-09T18:44:30;11.75;;;3.83;;
75667;SDS011;64266;48.798;44.756;2023-07-09T18:54:36;9.10;;;4.10;;
75667;SDS011;64266;48.798;44.756;2023-07-09T18:59:39;7.63;;;4.35;;
75667;SDS011;64266;48.798;44.756;2023-07-09T19:04:42;12.20;;;4.00;;
75667;SDS011;64266;48.798;44.756;2023-07-09T19:09:45;10.45;;;4.00;;
75667;SDS011;64266;48.798;44.756;2023-07-09T19:14:48;10.80;;;4.20;;
75667;SDS011;64266;48.798;44.756;2023-07-09T19:19:51;8.75;;;4.35;;
75667;SDS011;64266;48.798;44.756;2023-07-09T19:24:54;12.13;;;4.82;;
75667;SDS011;64266;48.798;44.756;2023-07-09T19:35:00;11.48;;;3.80;;
75667;SDS011;64266;48.798;44.756;2023-07-09T19:40:13;8.10;;;4.32;;
75667;SDS011;64266;48.798;44.756;2023-07-09T19:45:24;12.63;;;4.85;;
75667;SDS011;64266;48.798;44.756;2023-07-09T19:50:31;13.15;;;5.13;;
75667;SDS011;64266;48.798;44.756;2023-07-09T19:55:36;11.15;;;4.65;;
75667;SDS011;64266;48.798;44.756;2023-07-09T20:00:38;11.23;;;5.00;;
75667;SDS011;64266;48.798;44.756;2023-07-09T20:05:42;21.10;;;5.35;;
75667;SDS011;64266;48.798;44.756;2023-07-09T20:10:45;16.90;;;5.13;;
75667;SDS011;64266;48.798;44.756;2023-07-09T20:15:49;9.25;;;5.53;;
75667;SDS011;64266;48.798;44.756;2023-07-09T20:20:53;15.23;;;5.85;;
75667;SDS011;64266;48.798;44.756;2023-07-09T20:25:58;33.28;;;21.80;;
75667;SDS011;64266;48.798;44.756;2023-07-09T20:31:01;17.52;;;6.97;;
75667;SDS011;64266;48.798;44.756;2023-07-09T20:36:07;21.80;;;7.82;;
75667;SDS011;64266;48.798;44.756;2023-07-09T20:41:15;18.73;;;7.53;;
75667;SDS011;64266;48.798;44.756;2023-07-09T20:46:20;16.27;;;9.30;;
75667;SDS011;64266;48.798;44.756;2023-07-09T20:51:24;14.05;;;7.03;;
75667;SDS011;64266;48.798;44.756;2023-07-09T20:56:27;18.48;;;8.15;;
75667;SDS011;64266;48.798;44.756;2023-07-09T21:01:32;15.55;;;9.23;;
75667;SDS011;64266;48.798;44.756;2023-07-09T21:06:34;25.85;;;10.68;;
75667;SDS011;64266;48.798;44.756;2023-07-09T21:11:38;23.15;;;10.15;;
75667;SDS011;64266;48.798;44.756;2023-07-09T21:16:44;20.27;;;9.23;;
75667;SDS011;64266;48.798;44.756;2023-07-09T21:21:50;13.75;;;8.88;;
75667;SDS011;64266;48.798;44.756;2023-07-09T21:26:53;14.70;;;7.45;;
75667;SDS011;64266;48.798;44.756;2023-07-09T21:32:02;12.05;;;6.68;;
75667;SDS011;64266;48.798;44.756;2023-07-09T21:37:13;20.30;;;6.40;;
75667;SDS011;64266;48.798;44.756;2023-07-09T21:42:24;16.00;;;5.88;;
75667;SDS011;64266;48.798;44.756;2023-07-09T21:47:27;13.57;;;5.53;;
75667;SDS011;64266;48.798;44.756;2023-07-09T21:52:32;17.88;;;5.28;;
75667;SDS011;64266;48.798;44.756;2023-07-09T21:57:35;10.90;;;4.90;;
75667;SDS011;64266;48.798;44.756;2023-07-09T22:02:38;10.98;;;5.13;;
75667;SDS011;64266;48.798;44.756;2023-07-09T22:07:41;15.65;;;5.90;;
75667;SDS011;64266;48.798;44.756;2023-07-09T22:12:52;9.98;;;5.78;;
75667;SDS011;64266;48.798;44.756;2023-07-09T22:17:57;14.60;;;6.25;;
75667;SDS011;64266;48.798;44.756;2023-07-09T22:23:00;14.95;;;6.18;;
75667;SDS011;64266;48.798;44.756;2023-07-09T22:28:03;11.93;;;5.93;;
75667;SDS011;64266;48.798;44.756;2023-07-09T22:33:06;14.65;;;6.70;;
75667;SDS011;64266;48.798;44.756;2023-07-09T22:38:17;12.75;;;6.15;;
75667;SDS011;64266;48.798;44.756;2023-07-09T22:43:23;12.73;;;6.13;;
75667;SDS011;64266;48.798;44.756;2023-07-09T22:48:26;11.75;;;5.75;;
75667;SDS011;64266;48.798;44.756;2023-07-09T22:53:31;11.43;;;6.28;;
75667;SDS011;64266;48.798;44.756;2023-07-09T22:58:34;14.23;;;6.20;;
75667;SDS011;64266;48.798;44.756;2023-07-09T23:03:37;18.55;;;7.45;;
75667;SDS011;64266;48.798;44.756;2023-07-09T23:08:44;19.20;;;8.23;;
75667;SDS011;64266;48.798;44.756;2023-07-09T23:13:47;17.30;;;7.63;;
75667;SDS011;64266;48.798;44.756;2023-07-09T23:18:51;13.38;;;7.15;;
75667;SDS011;64266;48.798;44.756;2023-07-09T23:23:55;15.15;;;7.30;;
75667;SDS011;64266;48.798;44.756;2023-07-09T23:29:04;14.52;;;6.80;;
75667;SDS011;64266;48.798;44.756;2023-07-09T23:34:17;15.20;;;6.97;;
75667;SDS011;64266;48.798;44.756;2023-07-09T23:39:21;13.30;;;7.32;;
75667;SDS011;64266;48.798;44.756;2023-07-09T23:44:28;14.95;;;7.78;;
75667;SDS011;64266;48.798;44.756;2023-07-09T23:49:33;14.77;;;8.05;;
75667;SDS011;64266;48.798;44.756;2023-07-09T23:54:36;18.52;;;8.45;;
75667;SDS011;64266;48.798;44.756;2023-07-09T23:59:39;15.75;;;8.60;;
